SBOSBO DUB / EIDW
Speedbird OnlineSpeedbird Online DUB / EIDW

Dublin Airport
19:28 -0.9°C

Location Dublin, Ireland
Latitude: 53.421299
Longitude: -6.27007
Web Airport Website | Wikipedia
Altitude 74 Meter / 242 Feet
Distance 483 KM / 300 Miles
from London.
Time Zone UTC 0 hours (Europe/Dublin)
Codes IATA: DUB
ICAO: EIDW
Currency £1 equals EUR 1.16
Runways
RunwayLength (m)Surface
10R2637ASPH
111339Asphalt
162072Asphalt
28L2637ASPH
291339Asphalt
342072Asphalt
Radio
TypeDescriptionFrequency
APPAPP121.1
ATISATIS124.525
CLDCLNC DEL121.875
GNDGND121.8
INFOFIS118.5
TWRTWR118.6
Live ATC
METAR EIDW 091900Z 25007KT 210V280 2500 BCFG BKN001 BKN002 OVC003 M01/M01 Q1009 TEMPO 0900
TAF TAF EIDW 091700Z 0918/1018 26008KT 2000 BR SCT001 BKN002 TEMPO 0918/1010 0300 FZFG BKN001 PROB40 1010/1018 0300 FZFG BKN001
Weather As Of 09 Dec 2022 19:28
Description Fog
Wind 20 km/h from South-West (240°)
Cloud Cover 100%
Precipitation Rain: none, Snow: none
Sunrise 08:28
Sunset 16:06
Lounges The East Lounge , 1
Dublin Airport Executive Lounge, Main Departures Area
51st & Green US Pre-Clearance Lounge, Terminal 2
Rotations During the last 90 days there were
507 flights from LHR
427 flights from LCY
8 flights from SOU
3 flights from DUB
1 flights from LGW
504 flights to LHR
425 flights to LCY
6 flights to SOU
3 flights to DUB


© 2017-2022 Speedbird Online